Time;durP1;ratioP1;P1;durP2;ratioP2;P2;SDS_P1;SDS_P2;PMS_P1;PMS_P2;Temp;Humidity;BMP_temperature;BMP_pressure;BME280_temperature;BME280_humidity;BME280_pressure;Samples;Min_cycle;Max_cycle;Signal;HPM_P1;HPM_P2
2022/01/22 00:01:17;;;;;;;5.70;2.40;;;;;;;4.53;100.00;101985.16;5024328;28;20076;-88
2022/01/22 00:03:49;;;;;;;3.22;2.30;;;;;;;4.53;100.00;101986.03;5031953;28;20041;-89
2022/01/22 00:06:15;;;;;;;2.83;2.60;;;;;;;4.54;100.00;101992.13;5028980;28;20056;-88
2022/01/22 00:08:42;;;;;;;3.65;1.92;;;;;;;4.54;100.00;101994.72;5025889;28;20140;-87
2022/01/22 00:11:09;;;;;;;3.15;2.85;;;;;;;4.54;100.00;101993.00;5032797;28;20468;-88
2022/01/22 00:16:20;;;;;;;3.20;2.75;;;;;;;4.55;100.00;101983.50;5039271;28;20048;-87
2022/01/22 00:18:47;;;;;;;2.75;2.55;;;;;;;4.54;100.00;101989.53;5025074;28;20059;-90
2022/01/22 00:21:14;;;;;;;3.90;3.00;;;;;;;4.55;100.00;101987.00;5021495;28;20060;-90
2022/01/22 00:23:48;;;;;;;4.63;2.78;;;;;;;4.53;100.00;101983.44;5028826;28;20287;-88
2022/01/22 00:26:14;;;;;;;2.25;2.05;;;;;;;4.55;100.00;101988.69;5032089;28;20072;-89
2022/01/22 00:28:41;;;;;;;3.45;2.60;;;;;;;4.53;100.00;101983.44;5012457;28;20147;-89
2022/01/22 00:31:08;;;;;;;3.55;2.65;;;;;;;4.55;100.00;101979.22;5032988;28;20052;-88
2022/01/22 00:33:34;;;;;;;3.08;2.58;;;;;;;4.53;100.00;101983.44;5017970;28;20037;-88
2022/01/22 00:36:01;;;;;;;3.28;2.13;;;;;;;4.54;100.00;101973.97;5030643;28;20411;-87
2022/01/22 00:38:29;;;;;;;2.42;2.20;;;;;;;4.53;100.00;101973.06;5033217;28;20524;-89
2022/01/22 00:40:56;;;;;;;3.20;2.90;;;;;;;4.54;100.00;101984.34;5012480;28;20044;-87
2022/01/22 00:43:23;;;;;;;2.72;2.50;;;;;;;4.54;100.00;101981.75;5014474;28;20051;-88
2022/01/22 00:45:50;;;;;;;4.85;3.42;;;;;;;4.56;100.00;101982.69;5017758;28;20048;-86
2022/01/22 00:48:16;;;;;;;3.53;2.63;;;;;;;4.55;100.00;101979.22;5011585;28;20777;-87
2022/01/22 00:50:43;;;;;;;3.50;2.40;;;;;;;4.57;100.00;101976.66;5031158;28;20103;-87
2022/01/22 00:53:12;;;;;;;2.75;2.55;;;;;;;4.57;100.00;101980.13;5016183;28;20106;-87
2022/01/22 00:55:39;;;;;;;2.47;2.17;;;;;;;4.57;100.00;101974.94;5021544;28;20574;-87
2022/01/22 00:58:08;;;;;;;3.22;2.28;;;;;;;4.58;100.00;101981.03;5015936;28;20140;-91
2022/01/22 01:00:35;;;;;;;3.28;2.60;;;;;;;4.58;100.00;101981.03;5032169;28;20074;-86
2022/01/22 01:03:02;;;;;;;2.70;2.50;;;;;;;4.58;100.00;101992.28;5032868;28;20029;-88
2022/01/22 01:05:28;;;;;;;3.00;2.58;;;;;;;4.58;100.00;102004.38;5019084;28;20038;-89
2022/01/22 01:07:55;;;;;;;3.35;2.40;;;;;;;4.56;100.00;101995.66;5025544;28;20053;-86
2022/01/22 01:10:24;;;;;;;2.38;2.17;;;;;;;4.56;100.00;101998.25;5013859;28;20049;-86
2022/01/22 01:12:52;;;;;;;4.03;2.78;;;;;;;4.55;100.00;101989.59;5030557;28;20037;-86
2022/01/22 01:15:38;;;;;;;2.63;2.42;;;;;;;4.56;100.00;101990.47;5012693;28;20103;-87
2022/01/22 01:34:32;;;;;;;2.15;2.05;;;;;;;4.52;100.00;101999.81;5016941;28;20113;-88
2022/01/22 01:37:00;;;;;;;3.70;1.88;;;;;;;4.55;100.00;101999.06;5028242;28;20079;-87
2022/01/22 01:39:31;;;;;;;2.78;2.17;;;;;;;4.52;100.00;101999.81;5032685;28;20775;-87
2022/01/22 01:42:03;;;;;;;1.70;1.60;;;;;;;4.51;100.00;101989.41;5017831;28;20041;-87
2022/01/22 01:44:30;;;;;;;2.30;1.52;;;;;;;4.51;100.00;102003.28;5030233;28;20045;-88
2022/01/22 01:47:01;;;;;;;1.80;1.70;;;;;;;4.52;100.00;102005.00;5033981;28;20134;-87
2022/01/22 01:49:29;;;;;;;2.08;1.92;;;;;;;4.51;100.00;102003.28;5003052;28;20053;-86
2022/01/22 01:52:00;;;;;;;2.22;2.03;;;;;;;4.52;100.00;102002.41;4999859;28;20059;-86
2022/01/22 01:54:30;;;;;;;1.85;1.40;;;;;;;4.55;100.00;101996.47;5013427;28;20055;-88
2022/01/22 01:59:46;;;;;;;2.85;1.70;;;;;;;4.55;100.00;101992.19;5026014;28;20110;-86
2022/01/22 02:02:13;;;;;;;2.03;1.52;;;;;;;4.55;100.00;101993.88;5011285;28;20056;-88
2022/01/22 02:04:41;;;;;;;1.55;1.42;;;;;;;4.54;100.00;101998.19;5018126;28;20040;-88
2022/01/22 02:07:07;;;;;;;1.83;1.70;;;;;;;4.57;100.00;101997.41;5018656;28;20041;-87
2022/01/22 02:09:36;;;;;;;2.08;1.88;;;;;;;4.55;100.00;101993.88;5014476;28;20090;-88
2022/01/22 02:12:09;;;;;;;3.63;1.88;;;;;;;4.55;100.00;101993.88;5018371;28;20069;-88
2022/01/22 02:25:39;;;;;;;3.60;1.58;;;;;;;4.56;100.00;101988.78;5020242;28;20044;-87
2022/01/22 02:28:05;;;;;;;2.28;1.80;;;;;;;4.57;100.00;101998.28;5010999;28;20154;-85
2022/01/22 02:30:36;;;;;;;1.85;1.70;;;;;;;4.57;100.00;102003.47;5016234;28;20126;-88
2022/01/22 02:33:22;;;;;;;1.92;1.65;;;;;;;4.58;100.00;101996.59;5009452;28;20053;-87
2022/01/22 02:35:53;;;;;;;3.17;2.50;;;;;;;4.60;100.00;101993.22;5015167;28;20044;-88
2022/01/22 02:38:26;;;;;;;3.60;1.88;;;;;;;4.60;100.00;102013.09;5011893;28;20310;-87
2022/01/22 02:40:53;;;;;;;3.00;1.65;;;;;;;4.62;100.00;102014.03;5029928;28;20045;-88
2022/01/22 02:43:20;;;;;;;2.83;2.05;;;;;;;4.65;100.00;102006.34;5010136;28;20048;-88
2022/01/22 02:45:48;;;;;;;2.00;1.77;;;;;;;4.66;100.00;102018.50;5014633;28;20694;-86
2022/01/22 02:48:15;;;;;;;1.95;1.80;;;;;;;4.68;100.00;102023.75;5014728;28;20437;-87
2022/01/22 02:50:42;;;;;;;3.25;2.30;;;;;;;4.68;100.00;102027.25;4997601;28;20397;-87
2022/01/22 02:53:13;;;;;;;3.63;2.60;;;;;;;4.71;100.00;102026.47;5008631;28;20068;-87
2022/01/22 02:55:40;;;;;;;4.85;2.40;;;;;;;4.71;100.00;102035.13;5012528;28;20509;-89
2022/01/22 02:58:07;;;;;;;2.90;2.30;;;;;;;4.70;100.00;102030.75;5030011;28;20403;-87
2022/01/22 03:00:34;;;;;;;2.47;2.28;;;;;;;4.72;100.00;102020.44;5014618;28;20086;-87
2022/01/22 03:03:02;;;;;;;3.75;2.80;;;;;;;4.74;100.00;102034.34;5021705;28;20492;-86
2022/01/22 03:05:29;;;;;;;3.70;2.58;;;;;;;4.73;100.00;102028.31;5015515;28;20053;-89
2022/01/22 03:07:57;;;;;;;2.78;1.98;;;;;;;4.73;100.00;102035.19;5023121;28;20362;-88
2022/01/22 03:10:27;;;;;;;4.45;2.90;;;;;;;4.75;100.00;102033.53;5026043;28;20097;-87
2022/01/22 03:13:13;;;;;;;2.08;1.90;;;;;;;4.75;100.00;102038.72;5022233;28;20124;-86
2022/01/22 03:15:55;;;;;;;2.35;1.60;;;;;;;4.77;100.00;102042.25;5016376;28;20103;-88
2022/01/22 03:18:36;;;;;;;2.42;2.22;;;;;;;4.78;100.00;102041.44;5029155;28;20413;-87
2022/01/22 03:21:11;;;;;;;2.00;1.80;;;;;;;4.77;100.00;102035.38;5015869;28;20140;-88
2022/01/22 03:29:10;;;;;;;4.45;2.00;;;;;;;4.80;100.00;102047.56;5020437;28;20037;-86
2022/01/22 03:31:38;;;;;;;2.80;2.10;;;;;;;4.82;100.00;102048.50;5017535;28;20058;-87
2022/01/22 03:34:05;;;;;;;2.42;1.77;;;;;;;4.83;100.00;102046.78;5018832;28;20357;-87
2022/01/22 03:36:35;;;;;;;2.05;1.88;;;;;;;4.83;100.00;102058.03;5008702;28;20149;-88
2022/01/22 03:39:06;;;;;;;3.17;1.92;;;;;;;4.83;100.00;102059.78;5024099;28;20095;-87
2022/01/22 03:41:33;;;;;;;2.63;2.10;;;;;;;4.82;100.00;102053.69;5023017;28;20168;-88
2022/01/22 03:44:00;;;;;;;2.15;1.45;;;;;;;4.83;100.00;102060.63;5010435;28;20136;-89
2022/01/22 03:46:27;;;;;;;2.22;1.63;;;;;;;4.84;100.00;102069.28;5018585;28;20056;-88
2022/01/22 03:48:55;;;;;;;2.22;1.95;;;;;;;4.85;100.00;102071.06;5036028;28;20123;-86
2022/01/22 03:51:21;;;;;;;2.63;2.35;;;;;;;4.86;100.00;102078.03;5029447;28;20048;-87
2022/01/22 03:53:48;;;;;;;2.38;1.55;;;;;;;4.87;100.00;102079.81;5023610;28;20053;-87
2022/01/22 03:56:15;;;;;;;2.17;1.50;;;;;;;4.86;100.00;102080.63;5035555;28;20118;-88
2022/01/22 03:58:45;;;;;;;2.67;2.33;;;;;;;4.87;100.00;102082.41;5043067;28;20254;-88
2022/01/22 04:01:48;;;;;;;2.75;1.95;;;;;;;4.88;100.00;102073.81;5052575;28;20462;-88
2022/01/22 04:04:14;;;;;;;3.50;2.00;;;;;;;4.87;100.00;102072.91;5028388;28;20040;-87
2022/01/22 04:09:23;;;;;;;3.80;2.30;;;;;;;4.88;100.00;102061.69;5031721;28;20057;-88
2022/01/22 04:11:51;;;;;;;3.50;1.95;;;;;;;4.90;100.00;102066.94;5035054;28;20068;-86
2022/01/22 04:14:22;;;;;;;3.90;1.95;;;;;;;4.89;100.00;102068.66;5053168;28;20052;-86
2022/01/22 04:17:02;;;;;;;2.15;1.80;;;;;;;4.90;100.00;102067.84;5035928;28;20136;-88
2022/01/22 04:24:57;;;;;;;3.97;2.55;;;;;;;4.91;100.00;102077.38;5021250;28;20037;-88
2022/01/22 04:27:27;;;;;;;3.67;2.30;;;;;;;4.91;100.00;102071.31;5033474;28;20044;-88
2022/01/22 04:29:57;;;;;;;3.88;2.17;;;;;;;4.91;100.00;102074.78;5022770;28;20117;-88
2022/01/22 04:32:29;;;;;;;6.13;2.47;;;;;;;4.93;100.00;102080.91;5023114;28;21776;-86
2022/01/22 04:34:57;;;;;;;3.03;2.72;;;;;;;4.93;100.00;102087.84;5036766;28;20046;-88
2022/01/22 04:37:25;;;;;;;2.83;2.22;;;;;;;4.94;100.00;102080.09;5036897;28;20558;-87
2022/01/22 04:39:52;;;;;;;4.38;2.85;;;;;;;4.95;100.00;102080.97;5034450;28;20056;-86
2022/01/22 04:42:20;;;;;;;2.88;2.45;;;;;;;4.96;100.00;102075.81;5019587;28;20075;-86
2022/01/22 04:44:55;;;;;;;4.45;2.28;;;;;;;4.96;100.00;102081.03;5030810;28;20045;-86
2022/01/22 04:47:33;;;;;;;3.40;2.35;;;;;;;4.99;100.00;102089.75;5039277;28;20045;-87
2022/01/22 04:54:58;;;;;;;3.08;2.30;;;;;;;5.00;100.00;102083.75;5027037;28;20052;-86
2022/01/22 04:55:31;;;;;;;7.32;3.10;;;;;;;5.01;100.00;102085.53;5015087;28;20044;-86
2022/01/22 04:57:59;;;;;;;3.25;2.95;;;;;;;5.03;100.00;102094.22;5028472;28;20140;-88
2022/01/22 05:00:26;;;;;;;4.75;2.78;;;;;;;5.03;100.00;102094.22;5008319;28;20056;-87
2022/01/22 05:02:52;;;;;;;4.43;2.70;;;;;;;5.03;100.00;102100.31;5022105;28;20060;-87
2022/01/22 05:05:19;;;;;;;3.08;2.53;;;;;;;5.04;100.00;102104.66;5018474;28;20040;-87
2022/01/22 05:07:48;;;;;;;4.88;3.03;;;;;;;5.03;100.00;102104.63;5040410;28;20632;-88
2022/01/22 05:10:14;;;;;;;5.60;3.50;;;;;;;5.03;100.00;102102.94;5041363;28;20472;-87
2022/01/22 05:12:41;;;;;;;6.53;2.50;;;;;;;5.06;100.00;102112.50;5026184;28;20053;-87
2022/01/22 05:15:09;;;;;;;4.30;2.67;;;;;;;5.08;100.00;102114.31;5020678;28;20049;-87
2022/01/22 05:17:36;;;;;;;3.90;2.80;;;;;;;5.08;100.00;102110.88;5006712;28;20079;-88
2022/01/22 05:20:13;;;;;;;5.03;2.80;;;;;;;5.08;100.00;102116.94;5025143;28;20053;-87
2022/01/22 05:22:53;;;;;;;4.25;2.63;;;;;;;5.11;100.00;102114.47;5012934;28;20049;-88
2022/01/22 05:25:25;;;;;;;3.22;2.17;;;;;;;5.10;100.00;102111.81;5029410;28;20056;-87
2022/01/22 05:28:10;;;;;;;2.45;2.25;;;;;;;5.09;100.00;102110.03;5026689;28;20044;-86
2022/01/22 05:30:54;;;;;;;3.40;2.17;;;;;;;5.10;100.00;102111.81;5011938;28;20052;-88
2022/01/22 05:36:55;;;;;;;2.67;2.20;;;;;;;5.10;100.00;102109.22;5033204;28;20123;-87
2022/01/22 05:39:10;;;;;;;3.03;2.45;;;;;;;5.10;100.00;102109.22;5033143;28;20028;-87
2022/01/22 05:41:41;;;;;;;3.28;2.63;;;;;;;5.13;100.00;102111.91;5017159;28;20163;-87
2022/01/22 05:44:08;;;;;;;3.22;2.25;;;;;;;5.12;100.00;102120.53;5032269;28;20049;-87
2022/01/22 05:46:35;;;;;;;3.35;2.50;;;;;;;5.11;100.00;102118.75;5044919;28;20064;-87
2022/01/22 05:49:01;;;;;;;3.67;2.33;;;;;;;5.10;100.00;102120.47;5044530;28;20045;-87
2022/01/22 05:51:28;;;;;;;3.92;2.28;;;;;;;5.10;100.00;102117.88;5037945;28;20041;-88
2022/01/22 05:54:28;;;;;;;2.45;2.20;;;;;;;5.09;100.00;102118.69;5026768;28;20274;-86
2022/01/22 05:59:43;;;;;;;2.75;1.65;;;;;;;5.11;100.00;102139.53;5036805;28;20566;-87
2022/01/22 06:02:19;;;;;;;4.07;2.00;;;;;;;5.10;100.00;102130.84;5029862;28;20056;-87
2022/01/22 06:04:46;;;;;;;1.85;1.65;;;;;;;5.09;100.00;102136.88;5025877;28;20445;-87
2022/01/22 06:07:14;;;;;;;2.53;1.88;;;;;;;5.11;100.00;102136.91;5031922;28;20522;-88
2022/01/22 06:09:54;;;;;;;4.82;2.58;;;;;;;5.10;100.00;102149.03;5026019;28;20724;-87
2022/01/22 06:12:40;;;;;;;5.88;2.42;;;;;;;5.11;100.00;102152.50;5008750;28;20052;-86
2022/01/22 06:15:07;;;;;;;3.35;1.55;;;;;;;5.11;100.00;102162.88;5015658;28;20061;-87
2022/01/22 06:17:34;;;;;;;4.72;2.30;;;;;;;5.10;100.00;102169.78;5029227;28;20384;-87
2022/01/22 06:20:00;;;;;;;5.25;2.28;;;;;;;5.10;100.00;102161.13;5028752;28;20049;-87
2022/01/22 06:22:27;;;;;;;3.33;2.30;;;;;;;5.08;100.00;102168.84;5037209;28;20072;-87
2022/01/22 06:24:56;;;;;;;2.75;1.95;;;;;;;5.08;100.00;102168.84;5029372;28;20048;-87
2022/01/22 06:27:23;;;;;;;5.07;1.92;;;;;;;5.08;100.00;102170.56;5031174;28;20382;-87
2022/01/22 06:29:49;;;;;;;5.93;2.25;;;;;;;5.08;100.00;102170.56;5030329;28;20048;-87
2022/01/22 06:32:16;;;;;;;1.70;1.60;;;;;;;5.07;100.00;102171.38;5026018;28;20056;-86
2022/01/22 06:34:43;;;;;;;2.40;2.20;;;;;;;5.06;100.00;102174.78;5026110;28;20561;-87
2022/01/22 06:37:09;;;;;;;5.10;1.50;;;;;;;5.06;100.00;102175.69;5029311;28;20042;-86
2022/01/22 06:40:02;;;;;;;3.15;2.15;;;;;;;5.06;100.00;102185.19;5032211;28;20072;-87
2022/01/22 06:42:22;;;;;;;2.60;2.08;;;;;;;5.06;100.00;102183.50;5030559;28;20385;-87
2022/01/22 06:44:49;;;;;;;2.58;1.35;;;;;;;5.06;100.00;102185.19;5030077;28;20056;-87
2022/01/22 06:47:15;;;;;;;2.75;1.70;;;;;;;5.03;100.00;102183.38;5030623;28;20060;-88
2022/01/22 06:49:42;;;;;;;2.40;1.42;;;;;;;5.02;100.00;102191.09;5034947;28;20059;-89
2022/01/22 06:52:11;;;;;;;2.78;1.13;;;;;;;5.03;100.00;102190.25;5022495;28;20060;-86
2022/01/22 06:54:38;;;;;;;3.47;2.70;;;;;;;5.03;100.00;102198.94;5013150;28;20147;-85
2022/01/22 06:57:05;;;;;;;2.63;1.02;;;;;;;5.05;100.00;102207.66;5016326;28;20087;-86
2022/01/22 06:59:39;;;;;;;2.78;1.80;;;;;;;5.03;100.00;102201.56;5017546;28;20100;-86
2022/01/22 07:02:07;;;;;;;3.60;1.83;;;;;;;5.05;100.00;102204.19;5008227;28;20127;-89
2022/01/22 07:04:37;;;;;;;1.95;1.75;;;;;;;5.05;100.00;102206.78;5010835;28;20049;-85
2022/01/22 07:07:09;;;;;;;3.45;1.95;;;;;;;5.06;100.00;102211.13;5020374;28;20053;-85
2022/01/22 07:09:38;;;;;;;4.63;3.15;;;;;;;5.07;100.00;102212.91;5012462;28;20091;-85
2022/01/22 07:12:06;;;;;;;8.13;3.72;;;;;;;5.07;100.00;102208.63;5022766;28;20059;-86
2022/01/22 07:14:33;;;;;;;5.97;3.00;;;;;;;5.09;100.00;102222.53;5002595;28;20061;-88
2022/01/22 07:17:01;;;;;;;4.95;2.85;;;;;;;5.09;100.00;102232.91;5011830;28;20048;-85
2022/01/22 07:19:29;;;;;;;5.43;3.08;;;;;;;5.11;100.00;102228.69;5022952;28;20423;-84
2022/01/22 07:22:03;;;;;;;5.72;3.25;;;;;;;5.11;100.00;102225.19;5022562;28;20076;-87
2022/01/22 07:24:37;;;;;;;4.20;3.25;;;;;;;5.10;100.00;102221.72;5011691;28;20047;-85
2022/01/22 07:27:04;;;;;;;;;;;;;;;5.09;100.00;102225.13;5011649;28;20683;-87
2022/01/22 07:29:32;;;;;;;5.55;3.30;;;;;;;5.09;100.00;102235.50;5022653;28;20352;-86
2022/01/22 07:32:13;;;;;;;3.10;2.72;;;;;;;5.08;100.00;102231.13;5031905;28;20053;-85
2022/01/22 07:34:40;;;;;;;6.63;3.28;;;;;;;5.09;100.00;102238.09;5017601;28;20051;-83
2022/01/22 07:37:20;;;;;;;5.88;3.65;;;;;;;5.11;100.00;102238.16;5018212;28;20080;-82
2022/01/22 07:39:51;;;;;;;5.20;3.55;;;;;;;5.12;100.00;102229.56;5032541;28;20586;-83
2022/01/22 07:42:18;;;;;;;4.90;3.92;;;;;;;5.12;100.00;102232.16;5032614;28;20044;-83
2022/01/22 07:44:45;;;;;;;5.97;4.22;;;;;;;5.13;100.00;102240.00;4997578;28;20101;-88
2022/01/22 07:47:12;;;;;;;6.85;3.60;;;;;;;5.14;100.00;102231.38;5045525;28;20147;-85
2022/01/22 07:49:39;;;;;;;10.95;4.30;;;;;;;5.14;100.00;102235.69;5037275;28;20049;-86
2022/01/22 07:52:06;;;;;;;8.15;4.78;;;;;;;5.16;100.00;102233.16;5028570;28;20044;-84
2022/01/22 07:54:34;;;;;;;6.70;3.92;;;;;;;5.17;100.00;102240.13;5045665;28;20435;-84
2022/01/22 07:57:03;;;;;;;6.35;4.88;;;;;;;5.16;100.00;102235.75;5018474;28;20053;-86
2022/01/22 07:59:32;;;;;;;7.28;4.70;;;;;;;5.17;100.00;102238.41;5044284;28;20048;-86
2022/01/22 08:02:09;;;;;;;8.98;5.10;;;;;;;5.18;100.00;102253.16;5035279;28;20581;-83
2022/01/22 08:04:36;;;;;;;6.40;4.70;;;;;;;5.19;100.00;102244.56;5023397;28;20031;-83
2022/01/22 08:07:05;;;;;;;7.10;4.95;;;;;;;5.19;100.00;102241.06;5031745;28;20053;-84
2022/01/22 08:09:32;;;;;;;7.38;4.95;;;;;;;5.19;100.00;102244.56;4997046;28;20045;-84
2022/01/22 08:12:00;;;;;;;10.43;5.85;;;;;;;5.19;100.00;102243.66;5015828;28;20052;-85
2022/01/22 08:14:27;;;;;;;6.95;4.72;;;;;;;5.20;100.00;102250.63;5005103;28;20052;-87
2022/01/22 08:16:54;;;;;;;7.43;5.32;;;;;;;5.20;100.00;102250.63;5015794;28;20041;-84
2022/01/22 08:19:23;;;;;;;7.72;4.72;;;;;;;5.21;100.00;102252.41;5034007;28;20037;-85
2022/01/22 08:21:50;;;;;;;6.93;4.90;;;;;;;5.22;100.00;102251.56;5011573;28;20455;-87
2022/01/22 08:24:21;;;;;;;9.23;5.63;;;;;;;5.22;100.00;102252.44;5032457;28;20317;-89
2022/01/22 08:26:53;;;;;;;6.75;5.13;;;;;;;5.23;100.00;102251.63;5026099;28;20688;-86
2022/01/22 08:29:19;;;;;;;7.60;6.13;;;;;;;5.24;100.00;102253.41;5051660;28;20037;-86
2022/01/22 08:31:51;;;;;;;11.25;5.80;;;;;;;5.26;100.00;102259.53;5040703;28;20048;-86
2022/01/22 08:37:03;;;;;;;9.68;5.20;;;;;;;5.28;100.00;102264.81;5035333;28;20081;-86
2022/01/22 08:39:29;;;;;;;14.20;5.75;;;;;;;5.32;100.00;102265.78;5030729;28;20496;-85
2022/01/22 08:41:59;;;;;;;9.43;6.13;;;;;;;5.34;100.00;102266.75;5044305;28;20052;-87
2022/01/22 08:44:26;;;;;;;9.10;5.07;;;;;;;5.38;100.00;102266.03;5028542;28;20048;-87
2022/01/22 08:46:52;;;;;;;10.32;5.93;;;;;;;5.43;100.00;102269.69;5020733;28;20064;-87
2022/01/22 08:49:19;;;;;;;10.02;4.90;;;;;;;5.44;100.00;102261.94;5041716;28;20049;-85
2022/01/22 08:51:48;;;;;;;10.10;5.38;;;;;;;5.46;100.00;102265.50;5039521;28;20044;-87
2022/01/22 08:54:14;;;;;;;8.23;4.72;;;;;;;5.49;100.00;102262.13;5027928;28;20048;-86
2022/01/22 08:56:41;;;;;;;7.18;3.88;;;;;;;5.47;100.00;102267.28;5031492;28;20388;-84
2022/01/22 08:59:11;;;;;;;4.45;3.22;;;;;;;5.46;100.00;102275.00;5036841;28;20135;-85
2022/01/22 09:01:43;;;;;;;5.55;2.80;;;;;;;5.44;100.00;102276.66;5040096;28;20052;-85
2022/01/22 09:04:10;;;;;;;2.88;2.22;;;;;;;5.41;100.00;102277.44;5017565;28;20152;-85
2022/01/22 09:06:37;;;;;;;3.53;2.70;;;;;;;5.41;100.00;102277.44;5043728;28;20549;-87
2022/01/22 09:09:09;;;;;;;8.95;2.80;;;;;;;5.41;100.00;102282.63;5044250;28;20057;-86
2022/01/22 09:11:38;;;;;;;4.97;3.17;;;;;;;5.42;100.00;102280.91;5028296;28;20055;-84
2022/01/22 09:14:09;;;;;;;3.50;2.55;;;;;;;5.42;100.00;102284.41;5026527;28;20572;-88
2022/01/22 09:16:37;;;;;;;4.78;2.60;;;;;;;5.45;100.00;102294.03;5005955;28;20531;-83
2022/01/22 09:19:09;;;;;;;7.55;3.38;;;;;;;5.47;100.00;102292.34;5040255;28;20526;-87
2022/01/22 09:21:45;;;;;;;7.18;2.63;;;;;;;5.51;100.00;102296.84;5021857;28;20070;-83
2022/01/22 09:24:16;;;;;;;3.38;2.55;;;;;;;5.55;100.00;102297.84;5031014;28;20478;-83
2022/01/22 09:26:45;;;;;;;5.70;2.30;;;;;;;5.56;100.00;102302.22;5035466;28;20068;-84
2022/01/22 09:29:15;;;;;;;3.83;2.38;;;;;;;5.60;100.00;102304.97;5029968;28;20244;-86
2022/01/22 09:31:42;;;;;;;6.57;2.00;;;;;;;5.62;100.00;102297.25;5036246;28;20037;-85
2022/01/22 09:34:09;;;;;;;2.33;1.60;;;;;;;5.64;100.00;102308.59;5043349;28;20056;-83
2022/01/22 09:36:44;;;;;;;2.67;2.35;;;;;;;5.65;100.00;102297.38;5013403;28;20190;-85
2022/01/22 09:39:12;;;;;;;4.65;1.98;;;;;;;5.67;100.00;102307.81;5029886;28;20049;-85
2022/01/22 09:41:56;;;;;;;4.85;2.00;;;;;;;5.71;100.00;102308.00;5024235;28;20048;-87
2022/01/22 09:44:23;;;;;;;7.07;2.50;;;;;;;5.75;100.00;102321.97;5027733;28;20141;-84
2022/01/22 09:47:00;;;;;;;3.42;1.70;;;;;;;5.76;100.00;102314.25;5049105;28;20060;-86
2022/01/22 09:49:27;;;;;;;4.07;1.67;;;;;;;5.79;100.00;102314.38;5011195;28;20450;-86
2022/01/22 09:51:53;;;;;;;5.15;2.53;;;;;;;5.83;100.00;102325.75;5013880;28;20044;-87
2022/01/22 09:54:20;;;;;;;2.60;2.15;;;;;;;5.88;100.00;102326.81;5016394;28;20642;-86
2022/01/22 09:56:47;;;;;;;1.75;1.65;;;;;;;5.95;100.00;102326.19;5013781;28;22347;-86
2022/01/22 09:59:15;;;;;;;5.00;2.78;;;;;;;6.07;100.00;102323.19;5008815;28;20044;-86
2022/01/22 10:01:42;;;;;;;4.40;2.20;;;;;;;6.19;100.00;102327.09;4994325;28;20483;-86
2022/01/22 10:04:10;;;;;;;2.13;1.92;;;;;;;6.28;100.00;102335.22;5007372;28;20388;-87
2022/01/22 10:06:53;;;;;;;3.80;2.70;;;;;;;6.32;100.00;102334.50;5016645;28;20053;-87
2022/01/22 10:09:32;;;;;;;2.85;1.92;;;;;;;6.31;100.00;102340.53;5020604;28;20145;-87
2022/01/22 10:12:16;;;;;;;3.88;2.20;;;;;;;6.35;100.00;102334.63;5005393;28;20083;-88
2022/01/22 10:15:17;;;;;;;5.73;2.80;;;;;;;6.37;100.00;102338.13;5009189;28;20618;-87
2022/01/22 10:17:49;;;;;;;1.95;1.85;;;;;;;6.46;100.00;102329.78;5026227;28;20437;-85
2022/01/22 10:20:21;;;;;;;4.20;2.58;;;;;;;6.49;100.00;102327.28;5018275;28;20049;-86
2022/01/22 10:22:58;;;;;;;4.57;2.83;;;;;;;6.57;100.00;102328.44;5020867;28;20690;-87
2022/01/22 10:25:36;;;;;;;3.70;3.35;;;;;;;6.65;100.00;102325.22;5001022;28;20053;-87
2022/01/22 10:28:17;;;;;;;7.20;2.92;;;;;;;6.74;100.00;102323.81;5004593;28;20060;-85
2022/01/22 10:30:46;;;;;;;2.65;2.40;;;;;;;6.85;100.00;102321.56;5027236;28;20052;-88
2022/01/22 10:33:27;;;;;;;4.72;2.03;;;;;;;6.96;100.00;102316.69;5024967;28;20048;-88
2022/01/22 10:36:17;;;;;;;2.95;2.20;;;;;;;7.01;100.00;102325.56;5031085;28;20055;-85
2022/01/22 10:38:52;;;;;;;2.80;2.33;;;;;;;7.02;100.00;102322.13;5022762;28;20096;-87
2022/01/22 10:41:33;;;;;;;1.95;1.60;;;;;;;6.98;100.00;102322.84;5030561;28;20049;-85
2022/01/22 10:44:01;;;;;;;2.53;1.80;;;;;;;6.91;100.00;102323.47;5038810;28;20617;-87
2022/01/22 10:46:44;;;;;;;2.03;1.80;;;;;;;6.78;100.00;102330.03;5039757;28;20056;-84
2022/01/22 10:49:20;;;;;;;1.50;1.40;;;;;;;6.65;100.00;102328.72;5025639;28;20060;-85
2022/01/22 10:52:00;;;;;;;2.60;1.83;;;;;;;6.58;100.00;102330.22;5033973;28;20079;-85
2022/01/22 10:54:30;;;;;;;2.38;1.50;;;;;;;6.59;100.00;102331.09;5040994;28;20611;-86
2022/01/22 10:57:10;;;;;;;2.00;1.08;;;;;;;6.57;100.00;102322.34;5020837;28;20289;-86
2022/01/22 10:59:37;;;;;;;2.15;2.03;;;;;;;6.56;100.00;102326.69;5043360;28;20044;-87
2022/01/22 11:02:08;;;;;;;1.80;1.33;;;;;;;6.54;100.00;102332.66;5008736;28;20053;-86
2022/01/22 11:04:35;;;;;;;2.17;1.58;;;;;;;6.49;100.00;102336.81;5023742;28;20049;-86
2022/01/22 11:07:05;;;;;;;3.58;1.15;;;;;;;6.44;100.00;102339.25;5039778;28;20500;-85
2022/01/22 11:09:34;;;;;;;2.88;1.48;;;;;;;6.36;100.00;102343.28;5014541;28;20049;-86
2022/01/22 11:12:16;;;;;;;1.90;1.80;;;;;;;6.28;100.00;102348.22;5018916;28;20134;-88
2022/01/22 11:14:45;;;;;;;4.85;3.05;;;;;;;6.20;100.00;102344.47;5015077;28;20041;-86
2022/01/22 11:17:14;;;;;;;1.92;1.83;;;;;;;6.14;100.00;102352.94;5035263;28;20135;-86
2022/01/22 11:19:45;;;;;;;2.38;2.17;;;;;;;6.10;100.00;102351.03;5042497;28;20048;-85
2022/01/22 11:22:16;;;;;;;3.45;2.58;;;;;;;6.07;100.00;102344.00;5029222;28;20045;-86
2022/01/22 11:24:54;;;;;;;2.75;2.08;;;;;;;6.05;100.00;102347.38;5023544;28;20045;-86
2022/01/22 11:27:23;;;;;;;5.38;2.83;;;;;;;6.01;100.00;102343.81;5024588;28;20049;-86
2022/01/22 11:30:08;;;;;;;3.78;2.72;;;;;;;5.96;100.00;102351.38;5040352;28;20094;-87
2022/01/22 11:32:46;;;;;;;2.83;2.28;;;;;;;5.94;100.00;102354.75;5029125;28;20057;-86
2022/01/22 11:35:15;;;;;;;4.40;2.53;;;;;;;5.91;100.00;102352.03;5049088;28;21138;-87
2022/01/22 11:37:53;;;;;;;2.05;1.85;;;;;;;5.89;100.00;102353.69;5046275;28;20048;-86
2022/01/22 11:40:25;;;;;;;2.65;2.25;;;;;;;5.94;100.00;102341.75;5011967;28;20431;-86
2022/01/22 11:43:05;;;;;;;5.00;2.13;;;;;;;5.96;100.00;102345.31;5044088;28;20117;-87
2022/01/22 11:45:38;;;;;;;7.40;2.67;;;;;;;5.92;100.00;102352.09;5037255;28;20049;-86
2022/01/22 11:48:24;;;;;;;2.58;1.60;;;;;;;5.89;100.00;102351.09;5029006;28;20061;-86
2022/01/22 11:50:55;;;;;;;1.75;1.65;;;;;;;5.86;100.00;102348.38;5022457;28;20060;-87
2022/01/22 11:53:34;;;;;;;2.88;2.00;;;;;;;5.87;100.00;102350.16;5010616;28;20041;-86
2022/01/22 11:56:14;;;;;;;2.63;1.65;;;;;;;5.88;100.00;102351.91;5038478;28;20041;-87
2022/01/22 11:58:56;;;;;;;2.55;1.95;;;;;;;5.86;100.00;102351.84;5024619;28;20397;-86
2022/01/22 12:01:56;;;;;;;2.25;1.90;;;;;;;5.87;100.00;102352.75;5032662;28;20154;-87
2022/01/22 12:04:28;;;;;;;3.53;2.05;;;;;;;5.89;100.00;102353.69;5014855;28;20071;-87
2022/01/22 12:07:07;;;;;;;4.05;2.15;;;;;;;5.89;100.00;102362.38;5043142;28;20580;-86
2022/01/22 12:09:51;;;;;;;2.45;2.28;;;;;;;5.89;100.00;102348.50;5046337;28;20053;-86
2022/01/22 12:15:51;;;;;;;2.88;1.85;;;;;;;5.94;100.00;102368.66;5041697;28;20036;-84
2022/01/22 12:18:21;;;;;;;3.90;2.50;;;;;;;5.99;100.00;102367.97;5040316;28;20059;-86
2022/01/22 12:23:49;;;;;;;2.35;1.95;;;;;;;6.14;100.00;102360.75;5021377;28;20059;-89
2022/01/22 12:26:38;;;;;;;2.60;1.80;;;;;;;6.13;100.00;102364.16;5041004;28;20064;-88
2022/01/22 12:29:45;;;;;;;3.00;1.83;;;;;;;6.16;100.00;102366.88;5035424;28;20052;-85
2022/01/22 12:35:08;;;;;;;1.92;1.75;;;;;;;6.15;100.00;102359.88;5006247;28;20053;-89
2022/01/22 12:38:02;;;;;;;1.67;1.58;;;;;;;6.16;100.00;102363.38;5022076;28;20739;-89
2022/01/22 12:40:34;;;;;;;2.60;1.52;;;;;;;6.15;100.00;102362.50;5020835;28;20589;-87
2022/01/22 12:43:14;;;;;;;3.17;1.90;;;;;;;6.12;100.00;102367.59;5036566;28;20131;-88
2022/01/22 12:48:45;;;;;;;1.75;1.60;;;;;;;6.10;100.00;102367.53;5090810;27;20136;-86
2022/01/22 12:51:12;;;;;;;1.80;1.20;;;;;;;6.08;100.00;102370.91;5075053;28;20052;-86
2022/01/22 12:53:41;;;;;;;1.27;1.15;;;;;;;6.06;100.00;102367.34;5052093;28;20068;-87